Time,TemperatureF,DewpointF,PressureIn,WindDirection,WindDirectionDegrees,WindSpeedMPH,WindSpeedGustMPH,Humidity,HourlyPrecipIn,Conditions,Clouds,dailyrainin,SoftwareType,DateUTC
2013-09-22 00:03:00,62.5,51.4,29.82,NNW,345,2.3,2.3,67,0.00,CLR,,0.00,WeatherDisplay:10.37,2013-09-22 07:03:00,
2013-09-22 00:08:00,62.2,51.1,29.83,North,360,3.0,3.0,67,0.00,CLR,,0.00,WeatherDisplay:10.37,2013-09-22 07:08:00,
2013-09-22 00:13:00,61.9,51.2,29.83,NNE,12,1.2,1.2,68,0.00,CLR,,0.00,WeatherDisplay:10.37,2013-09-22 07:13:00,
2013-09-22 00:18:00,61.6,51.3,29.83,NW,307,2.3,2.3,69,0.00,CLR,,0.00,WeatherDisplay:10.37,2013-09-22 07:18:00,
2013-09-22 00:23:00,61.4,51.1,29.83,NNW,328,2.3,2.3,69,0.00,CLR,,0.00,WeatherDisplay:10.37,2013-09-22 07:23:00,
2013-09-22 00:28:00,61.1,50.8,29.83,WNW,297,2.3,2.3,69,0.00,CLR,,0.00,WeatherDisplay:10.37,2013-09-22 07:28:00,
2013-09-22 00:33:00,60.9,51.0,29.83,NNW,345,2.3,2.3,70,0.00,CLR,,0.00,WeatherDisplay:10.37,2013-09-22 07:33:00,
2013-09-22 00:38:00,60.7,51.2,29.83,NW,322,3.5,3.5,71,0.00,CLR,,0.00,WeatherDisplay:10.37,2013-09-22 07:38:00,
2013-09-22 00:43:00,60.5,51.0,29.83,NW,324,2.3,2.3,71,0.00,CLR,,0.00,WeatherDisplay:10.37,2013-09-22 07:43:00,
2013-09-22 00:48:00,60.3,51.2,29.83,NW,321,0.0,0.0,72,0.00,CLR,,0.00,WeatherDisplay:10.37,2013-09-22 07:48:00,
2013-09-22 00:53:00,60.0,50.9,29.83,NW,322,0.0,0.0,72,0.00,CLR,,0.00,WeatherDisplay:10.37,2013-09-22 07:53:00,
2013-09-22 00:58:00,59.7,51.0,29.83,NNW,333,1.2,1.2,73,0.00,CLR,,0.00,WeatherDisplay:10.37,2013-09-22 07:58:00,
2013-09-22 01:03:00,59.5,50.8,29.83,NNW,333,0.0,0.0,73,0.00,CLR,,0.00,WeatherDisplay:10.37,2013-09-22 08:03:00,
2013-09-22 01:08:00,59.2,50.9,29.83,NNW,333,0.0,0.0,74,0.00,CLR,,0.00,WeatherDisplay:10.37,2013-09-22 08:08:00,
2013-09-22 01:13:00,59.0,50.7,29.83,NNW,333,0.0,0.0,74,0.00,CLR,,0.00,WeatherDisplay:10.37,2013-09-22 08:13:00,
2013-09-22 01:18:00,58.7,50.8,29.83,NNW,333,0.0,0.0,75,0.00,CLR,,0.00,WeatherDisplay:10.37,2013-09-22 08:18:00,
2013-09-22 01:23:00,58.7,50.8,29.83,NNW,335,0.0,0.0,75,0.00,CLR,,0.00,WeatherDisplay:10.37,2013-09-22 08:23:00,
2013-09-22 01:28:00,58.6,50.7,29.83,NNW,336,1.0,1.0,75,0.00,CLR,,0.00,WeatherDisplay:10.37,2013-09-22 08:28:00,
2013-09-22 01:33:00,58.6,51.1,29.84,NNW,336,0.0,0.0,76,0.00,CLR,,0.00,WeatherDisplay:10.37,2013-09-22 08:33:00,
2013-09-22 01:38:00,58.4,50.9,29.84,NNW,336,0.0,0.0,76,0.00,CLR,,0.00,WeatherDisplay:10.37,2013-09-22 08:38:00,
2013-09-22 01:43:00,58.2,50.7,29.84,NNW,336,0.0,0.0,76,0.00,CLR,,0.00,WeatherDisplay:10.37,2013-09-22 08:43:00,
2013-09-22 01:48:00,58.0,50.8,29.84,NNW,336,0.0,0.0,77,0.00,CLR,,0.00,WeatherDisplay:10.37,2013-09-22 08:48:00,
2013-09-22 01:53:00,57.8,50.6,29.84,NNW,336,0.0,0.0,77,0.00,CLR,,0.00,WeatherDisplay:10.37,2013-09-22 08:53:00,
2013-09-22 01:58:00,57.6,50.8,29.84,NNW,336,0.0,0.0,78,0.00,CLR,,0.00,WeatherDisplay:10.37,2013-09-22 08:58:00,
2013-09-22 02:03:00,57.4,50.6,29.85,NNW,335,0.0,0.0,78,0.00,CLR,,0.00,WeatherDisplay:10.37,2013-09-22 09:03:00,
2013-09-22 02:08:00,57.4,50.6,29.84,NNW,336,0.0,0.0,78,0.00,CLR,,0.00,WeatherDisplay:10.37,2013-09-22 09:08:00,
2013-09-22 02:13:00,57.4,50.6,29.84,NNW,336,0.0,0.0,78,0.00,CLR,,0.00,WeatherDisplay:10.37,2013-09-22 09:13:00,
2013-09-22 02:18:00,57.5,50.7,29.84,West,281,0.0,0.0,78,0.00,CLR,,0.00,WeatherDisplay:10.37,2013-09-22 09:18:00,
2013-09-22 02:23:00,57.4,50.6,29.84,WNW,302,1.2,1.2,78,0.00,CLR,,0.00,WeatherDisplay:10.37,2013-09-22 09:23:00,
2013-09-22 02:28:00,57.3,50.5,29.84,WNW,302,0.0,0.0,78,0.00,CLR,,0.00,WeatherDisplay:10.37,2013-09-22 09:28:00,
2013-09-22 02:33:00,57.2,50.4,29.84,WNW,302,0.0,0.0,78,0.00,CLR,,0.00,WeatherDisplay:10.37,2013-09-22 09:33:00,
2013-09-22 02:38:00,57.1,50.6,29.84,WNW,302,0.0,0.0,79,0.00,CLR,,0.00,WeatherDisplay:10.37,2013-09-22 09:38:00,
2013-09-22 02:43:00,56.9,50.5,29.84,WNW,302,0.0,0.0,79,0.00,CLR,,0.00,WeatherDisplay:10.37,2013-09-22 09:43:00,
2013-09-22 02:48:00,56.8,50.4,29.84,WNW,302,0.0,0.0,79,0.00,CLR,,0.00,WeatherDisplay:10.37,2013-09-22 09:48:00,
2013-09-22 02:53:00,56.7,50.6,29.84,WNW,302,0.0,0.0,80,0.00,CLR,,0.00,WeatherDisplay:10.37,2013-09-22 09:53:00,
2013-09-22 02:58:00,56.5,50.4,29.84,WNW,302,0.0,0.0,80,0.00,CLR,,0.00,WeatherDisplay:10.37,2013-09-22 09:58:00,
2013-09-22 03:03:00,56.3,50.5,29.84,WNW,302,0.0,0.0,81,0.00,CLR,,0.00,WeatherDisplay:10.37,2013-09-22 10:03:00,
2013-09-22 03:08:00,56.1,50.7,29.84,WNW,302,0.0,0.0,82,0.00,CLR,,0.00,WeatherDisplay:10.37,2013-09-22 10:08:00,
2013-09-22 03:13:00,55.9,50.5,29.84,WNW,302,0.0,0.0,82,0.00,CLR,,0.00,WeatherDisplay:10.37,2013-09-22 10:13:00,
2013-09-22 03:18:00,55.7,50.3,29.84,WNW,302,0.0,0.0,82,0.00,CLR,,0.00,WeatherDisplay:10.37,2013-09-22 10:18:00,
2013-09-22 03:23:00,55.4,50.0,29.84,WNW,302,0.0,0.0,82,0.00,CLR,,0.00,WeatherDisplay:10.37,2013-09-22 10:23:00,
2013-09-22 03:28:00,55.2,50.1,29.85,WNW,302,0.0,0.0,83,0.00,CLR,,0.00,WeatherDisplay:10.37,2013-09-22 10:28:00,
2013-09-22 03:33:00,55.0,50.3,29.85,WNW,302,0.0,0.0,84,0.00,CLR,,0.00,WeatherDisplay:10.37,2013-09-22 10:33:00,
2013-09-22 03:38:00,55.0,50.6,29.85,WNW,302,0.0,0.0,85,0.00,CLR,,0.00,WeatherDisplay:10.37,2013-09-22 10:38:00,
2013-09-22 03:43:00,55.0,50.6,29.85,WNW,302,0.0,0.0,85,0.00,CLR,,0.00,WeatherDisplay:10.37,2013-09-22 10:43:00,
2013-09-22 03:48:00,54.9,50.2,29.85,WNW,302,0.0,0.0,84,0.00,CLR,,0.00,WeatherDisplay:10.37,2013-09-22 10:48:00,
2013-09-22 03:53:00,54.8,50.4,29.85,WNW,302,0.0,0.0,85,0.00,CLR,,0.00,WeatherDisplay:10.37,2013-09-22 10:53:00,
2013-09-22 04:01:00,54.9,50.5,29.85,WNW,302,0.0,0.0,85,0.00,CLR,,0.00,WeatherDisplay:10.37,2013-09-22 11:01:00,
2013-09-22 04:06:00,55.1,50.7,29.85,WNW,302,0.0,0.0,85,0.00,CLR,,0.00,WeatherDisplay:10.37,2013-09-22 11:06:00,
2013-09-22 04:11:00,55.1,50.7,29.85,WNW,302,0.0,0.0,85,0.00,CLR,,0.00,WeatherDisplay:10.37,2013-09-22 11:11:00,
2013-09-22 04:16:00,55.2,50.8,29.85,WNW,302,0.0,0.0,85,0.00,CLR,,0.00,WeatherDisplay:10.37,2013-09-22 11:16:00,
2013-09-22 04:21:00,55.1,50.7,29.86,WNW,302,0.0,0.0,85,0.00,CLR,,0.00,WeatherDisplay:10.37,2013-09-22 11:21:00,
2013-09-22 04:26:00,55.0,50.6,29.86,WNW,302,0.0,0.0,85,0.00,CLR,,0.00,WeatherDisplay:10.37,2013-09-22 11:26:00,
2013-09-22 04:31:00,54.8,50.4,29.86,WNW,300,0.0,0.0,85,0.00,CLR,,0.00,WeatherDisplay:10.37,2013-09-22 11:31:00,
2013-09-22 04:36:00,54.7,50.3,29.86,WNW,300,0.0,0.0,85,0.00,CLR,,0.00,WeatherDisplay:10.37,2013-09-22 11:36:00,
2013-09-22 04:41:00,54.7,50.3,29.86,WNW,300,0.0,0.0,85,0.00,CLR,,0.00,WeatherDisplay:10.37,2013-09-22 11:41:00,
2013-09-22 04:46:00,54.8,50.4,29.86,WNW,300,0.0,0.0,85,0.00,CLR,,0.00,WeatherDisplay:10.37,2013-09-22 11:46:00,
2013-09-22 04:51:00,54.9,50.5,29.86,NW,308,0.0,0.0,85,0.00,CLR,,0.00,WeatherDisplay:10.37,2013-09-22 11:51:00,
2013-09-22 04:56:00,54.9,50.2,29.86,NW,307,0.0,0.0,84,0.00,CLR,,0.00,WeatherDisplay:10.37,2013-09-22 11:56:00,
2013-09-22 05:01:00,54.9,50.5,29.86,NW,308,0.0,0.0,85,0.00,CLR,,0.00,WeatherDisplay:10.37,2013-09-22 12:01:00,
2013-09-22 05:06:00,54.7,50.3,29.86,NW,307,0.0,0.0,85,0.00,CLR,,0.00,WeatherDisplay:10.37,2013-09-22 12:06:00,
2013-09-22 05:11:00,54.6,50.2,29.87,NW,307,0.0,0.0,85,0.00,CLR,,0.00,WeatherDisplay:10.37,2013-09-22 12:11:00,
2013-09-22 05:16:00,54.5,50.1,29.87,NW,307,0.0,0.0,85,0.00,CLR,,0.00,WeatherDisplay:10.37,2013-09-22 12:16:00,
2013-09-22 05:21:00,54.4,50.3,29.87,NW,307,0.0,0.0,86,0.00,CLR,,0.00,WeatherDisplay:10.37,2013-09-22 12:21:00,
2013-09-22 05:26:00,54.2,50.1,29.87,NW,308,0.0,0.0,86,0.00,CLR,,0.00,WeatherDisplay:10.37,2013-09-22 12:26:00,
2013-09-22 05:31:00,54.0,49.9,29.87,NW,307,0.0,0.0,86,0.00,CLR,,0.00,WeatherDisplay:10.37,2013-09-22 12:31:00,
2013-09-22 05:36:00,53.8,50.0,29.87,NW,308,0.0,0.0,87,0.00,CLR,,0.00,WeatherDisplay:10.37,2013-09-22 12:36:00,
2013-09-22 05:41:00,53.6,49.8,29.87,NW,307,0.0,0.0,87,0.00,CLR,,0.00,WeatherDisplay:10.37,2013-09-22 12:41:00,
2013-09-22 05:46:00,53.4,49.6,29.87,NW,307,0.0,0.0,87,0.00,CLR,,0.00,WeatherDisplay:10.37,2013-09-22 12:46:00,
2013-09-22 05:51:00,53.3,49.8,29.87,NW,307,0.0,0.0,88,0.00,CLR,,0.00,WeatherDisplay:10.37,2013-09-22 12:51:00,
2013-09-22 05:56:00,53.2,49.7,29.87,NW,308,0.0,0.0,88,0.00,CLR,,0.00,WeatherDisplay:10.37,2013-09-22 12:56:00,
2013-09-22 06:01:00,53.0,49.5,29.87,NW,307,0.0,0.0,88,0.00,CLR,,0.00,WeatherDisplay:10.37,2013-09-22 13:01:00,
2013-09-22 06:06:00,52.9,49.7,29.87,NW,308,0.0,0.0,89,0.00,CLR,,0.00,WeatherDisplay:10.37,2013-09-22 13:06:00,
2013-09-22 06:11:00,52.8,49.6,29.87,NW,308,0.0,0.0,89,0.00,CLR,,0.00,WeatherDisplay:10.37,2013-09-22 13:11:00,
2013-09-22 06:16:00,52.8,49.6,29.87,NW,308,0.0,0.0,89,0.00,CLR,,0.00,WeatherDisplay:10.37,2013-09-22 13:16:00,
2013-09-22 06:21:00,52.8,49.6,29.87,NW,308,0.0,0.0,89,0.00,CLR,,0.00,WeatherDisplay:10.37,2013-09-22 13:21:00,
2013-09-22 06:26:00,52.8,49.6,29.87,NW,308,0.0,0.0,89,0.00,CLR,,0.00,WeatherDisplay:10.37,2013-09-22 13:26:00,
2013-09-22 06:31:00,52.7,49.5,29.87,NW,307,0.0,0.0,89,0.00,CLR,,0.00,WeatherDisplay:10.37,2013-09-22 13:31:00,
2013-09-22 06:36:00,52.5,49.4,29.87,NW,307,0.0,0.0,89,0.00,CLR,,0.00,WeatherDisplay:10.37,2013-09-22 13:36:00,
2013-09-22 06:41:00,52.4,49.3,29.87,NW,307,0.0,0.0,89,0.00,CLR,,0.00,WeatherDisplay:10.37,2013-09-22 13:41:00,
2013-09-22 06:46:00,52.3,49.5,29.87,NW,307,0.0,0.0,90,0.00,CLR,,0.00,WeatherDisplay:10.37,2013-09-22 13:46:00,
2013-09-22 06:51:00,52.2,49.4,29.88,NW,307,0.0,0.0,90,0.00,CLR,,0.00,WeatherDisplay:10.37,2013-09-22 13:51:00,
2013-09-22 06:56:00,52.2,49.4,29.88,NW,308,0.0,0.0,90,0.00,CLR,,0.00,WeatherDisplay:10.37,2013-09-22 13:56:00,
2013-09-22 07:01:00,52.2,49.4,29.88,NW,307,0.0,0.0,90,0.00,CLR,,0.00,WeatherDisplay:10.37,2013-09-22 14:01:00,
2013-09-22 07:06:00,52.1,49.3,29.88,NW,308,0.0,0.0,90,0.00,CLR,,0.00,WeatherDisplay:10.37,2013-09-22 14:06:00,
2013-09-22 07:11:00,52.1,49.3,29.88,NW,307,0.0,0.0,90,0.00,CLR,,0.00,WeatherDisplay:10.37,2013-09-22 14:11:00,
2013-09-22 07:16:00,52.1,49.6,29.89,NW,308,0.0,0.0,91,0.00,CLR,,0.00,WeatherDisplay:10.37,2013-09-22 14:16:00,
2013-09-22 07:21:00,52.2,49.7,29.89,NW,308,0.0,0.0,91,0.00,CLR,,0.00,WeatherDisplay:10.37,2013-09-22 14:21:00,
2013-09-22 07:26:00,52.4,49.8,29.89,NW,308,0.0,0.0,91,0.00,CLR,,0.00,WeatherDisplay:10.37,2013-09-22 14:26:00,
2013-09-22 07:31:00,52.6,50.0,29.89,WNW,283,0.0,0.0,91,0.00,CLR,,0.00,WeatherDisplay:10.37,2013-09-22 14:31:00,
2013-09-22 07:36:00,52.8,50.2,29.89,WNW,283,0.0,0.0,91,0.00,CLR,,0.00,WeatherDisplay:10.37,2013-09-22 14:36:00,
2013-09-22 07:41:00,53.3,51.3,29.89,WNW,283,0.0,0.0,93,0.00,CLR,,0.00,WeatherDisplay:10.37,2013-09-22 14:41:00,
2013-09-22 07:46:00,54.0,52.0,29.89,WNW,283,0.0,0.0,93,0.00,CLR,,0.00,WeatherDisplay:10.37,2013-09-22 14:46:00,
2013-09-22 07:51:00,54.4,52.4,29.89,WNW,283,0.0,0.0,93,0.00,CLR,,0.00,WeatherDisplay:10.37,2013-09-22 14:51:00,
2013-09-22 07:56:00,54.6,52.3,29.89,WNW,283,0.0,0.0,92,0.00,CLR,,0.00,WeatherDisplay:10.37,2013-09-22 14:56:00,
2013-09-22 08:01:00,54.7,52.1,29.90,WNW,283,0.0,0.0,91,0.00,CLR,,0.00,WeatherDisplay:10.37,2013-09-22 15:01:00,
2013-09-22 08:06:00,54.8,51.6,29.89,WNW,283,0.0,0.0,89,0.00,CLR,,0.00,WeatherDisplay:10.37,2013-09-22 15:06:00,
2013-09-22 08:11:00,55.0,51.8,29.89,WNW,283,0.0,0.0,89,0.00,CLR,,0.00,WeatherDisplay:10.37,2013-09-22 15:11:00,
2013-09-22 08:16:00,55.3,51.8,29.89,SW,223,0.0,0.1,88,0.00,CLR,,0.00,WeatherDisplay:10.37,2013-09-22 15:16:00,
2013-09-22 08:21:00,55.5,52.0,29.90,SW,222,0.0,0.0,88,0.00,CLR,,0.00,WeatherDisplay:10.37,2013-09-22 15:21:00,
2013-09-22 08:26:00,55.7,51.9,29.90,SW,235,0.0,0.0,87,0.00,CLR,,0.00,WeatherDisplay:10.37,2013-09-22 15:26:00,
2013-09-22 08:31:00,55.9,52.1,29.90,SW,235,0.0,0.0,87,0.00,CLR,,0.00,WeatherDisplay:10.37,2013-09-22 15:31:00,
2013-09-22 08:36:00,56.0,52.2,29.90,SW,235,0.0,0.0,87,0.00,CLR,,0.00,WeatherDisplay:10.37,2013-09-22 15:36:00,
2013-09-22 08:41:00,56.2,52.4,29.91,SW,235,0.0,0.0,87,0.00,CLR,,0.00,WeatherDisplay:10.37,2013-09-22 15:41:00,
2013-09-22 08:46:00,56.4,52.3,29.91,SW,235,0.0,0.0,86,0.00,CLR,,0.00,WeatherDisplay:10.37,2013-09-22 15:46:00,
2013-09-22 08:51:00,56.7,52.6,29.91,SW,235,0.0,0.0,86,0.00,CLR,,0.00,WeatherDisplay:10.37,2013-09-22 15:51:00,
2013-09-22 08:56:00,57.0,52.5,29.91,SW,234,0.0,0.0,85,0.00,CLR,,0.00,WeatherDisplay:10.37,2013-09-22 15:56:00,
2013-09-22 09:01:00,57.2,52.7,29.91,SW,235,0.0,0.0,85,0.00,CLR,,0.00,WeatherDisplay:10.37,2013-09-22 16:01:00,
2013-09-22 09:06:00,57.6,52.8,29.91,SW,235,1.2,0.0,84,0.00,CLR,,0.00,WeatherDisplay:10.37,2013-09-22 16:06:00,
2013-09-22 09:11:00,57.9,53.1,29.91,NNW,340,1.2,1.2,84,0.00,CLR,,0.00,WeatherDisplay:10.37,2013-09-22 16:11:00,
2013-09-22 09:16:00,58.1,53.0,29.91,NNW,343,1.2,0.0,83,0.00,CLR,,0.00,WeatherDisplay:10.37,2013-09-22 16:16:00,
2013-09-22 09:21:00,58.3,53.2,29.91,NW,324,1.2,0.0,83,0.00,CLR,,0.00,WeatherDisplay:10.37,2013-09-22 16:21:00,
2013-09-22 09:27:00,58.6,53.1,29.91,NW,324,0.0,0.0,82,0.00,CLR,,0.00,WeatherDisplay:10.37,2013-09-22 16:27:00,
2013-09-22 09:32:00,58.9,53.4,29.92,NW,325,0.0,0.0,82,0.00,CLR,,0.00,WeatherDisplay:10.37,2013-09-22 16:32:00,
2013-09-22 09:37:00,59.2,53.4,29.92,NNW,341,2.3,2.3,81,0.00,CLR,,0.00,WeatherDisplay:10.37,2013-09-22 16:37:00,
2013-09-22 09:42:00,59.5,53.3,29.92,NNW,328,2.3,2.3,80,0.00,CLR,,0.00,WeatherDisplay:10.37,2013-09-22 16:42:00,
2013-09-22 09:47:00,59.9,53.7,29.92,WSW,238,1.2,1.2,80,0.00,CLR,,0.00,WeatherDisplay:10.37,2013-09-22 16:47:00,
2013-09-22 09:52:00,60.5,54.3,29.92,South,179,0.0,0.0,80,0.00,CLR,,0.00,WeatherDisplay:10.37,2013-09-22 16:52:00,
2013-09-22 09:57:00,61.2,54.3,29.93,SW,229,3.5,3.5,78,0.00,CLR,,0.00,WeatherDisplay:10.37,2013-09-22 16:57:00,
2013-09-22 10:02:00,61.6,54.0,29.93,WNW,288,2.0,2.0,76,0.00,CLR,,0.00,WeatherDisplay:10.37,2013-09-22 17:02:00,
2013-09-22 10:07:00,61.8,53.8,29.93,NNW,342,0.0,0.0,75,0.00,CLR,,0.00,WeatherDisplay:10.37,2013-09-22 17:07:00,
2013-09-22 10:13:00,62.1,54.1,29.93,NW,324,1.2,1.2,75,0.00,CLR,,0.00,WeatherDisplay:10.37,2013-09-22 17:13:00,
2013-09-22 10:18:00,62.4,54.0,29.93,NNW,347,2.3,2.3,74,0.00,CLR,,0.00,WeatherDisplay:10.37,2013-09-22 17:18:00,
2013-09-22 10:23:00,62.6,53.8,29.93,NW,319,1.2,1.2,73,0.00,CLR,,0.00,WeatherDisplay:10.37,2013-09-22 17:23:00,
2013-09-22 10:28:00,62.9,54.1,29.93,NW,308,0.0,0.0,73,0.00,CLR,,0.00,WeatherDisplay:10.37,2013-09-22 17:28:00,
2013-09-22 10:33:00,63.1,54.3,29.93,South,176,2.3,2.3,73,0.00,CLR,,0.00,WeatherDisplay:10.37,2013-09-22 17:33:00,
2013-09-22 10:38:00,63.3,54.1,29.93,NNW,335,2.3,2.3,72,0.00,CLR,,0.00,WeatherDisplay:10.37,2013-09-22 17:38:00,
2013-09-22 10:43:00,63.4,54.2,29.93,SE,128,1.2,1.2,72,0.00,CLR,,0.00,WeatherDisplay:10.37,2013-09-22 17:43:00,
2013-09-22 10:48:00,63.8,53.4,29.93,West,262,2.3,2.3,69,0.00,CLR,,0.00,WeatherDisplay:10.37,2013-09-22 17:48:00,
2013-09-22 10:53:00,64.3,53.5,29.93,North,351,3.5,3.5,68,0.00,CLR,,0.00,WeatherDisplay:10.37,2013-09-22 17:53:00,
2013-09-22 10:58:00,64.3,53.5,29.93,West,270,2.3,2.3,68,0.00,CLR,,0.00,WeatherDisplay:10.37,2013-09-22 17:58:00,
2013-09-22 11:03:00,64.4,53.6,29.93,SW,225,2.3,2.3,68,0.00,CLR,,0.00,WeatherDisplay:10.37,2013-09-22 18:03:00,
2013-09-22 11:08:00,64.9,54.1,29.93,SW,233,1.2,1.2,68,0.00,CLR,,0.00,WeatherDisplay:10.37,2013-09-22 18:08:00,
2013-09-22 11:13:00,65.3,53.6,29.93,NNE,18,2.3,2.3,66,0.00,CLR,,0.00,WeatherDisplay:10.37,2013-09-22 18:13:00,
2013-09-22 11:18:00,65.9,53.4,29.93,SW,229,1.2,1.2,64,0.00,CLR,,0.00,WeatherDisplay:10.37,2013-09-22 18:18:00,
2013-09-22 11:23:00,66.2,53.2,29.93,NNE,18,1.2,0.0,63,0.00,CLR,,0.00,WeatherDisplay:10.37,2013-09-22 18:23:00,
2013-09-22 11:28:00,66.6,52.7,29.93,NNE,12,3.5,3.5,61,0.00,CLR,,0.00,WeatherDisplay:10.37,2013-09-22 18:28:00,
2013-09-22 11:33:00,66.9,53.9,29.93,West,264,2.3,2.3,63,0.00,FEW,,0.00,WeatherDisplay:10.37,2013-09-22 18:33:00,
2013-09-22 11:38:00,68.1,53.7,29.93,South,174,2.3,2.3,60,0.00,FEW,,0.00,WeatherDisplay:10.37,2013-09-22 18:38:00,
2013-09-22 11:43:00,68.5,52.7,29.93,SSW,201,3.5,3.5,57,0.00,FEW,,0.00,WeatherDisplay:10.37,2013-09-22 18:43:00,
2013-09-22 11:48:00,68.7,52.8,29.93,East,101,0.0,0.0,57,0.00,FEW,,0.00,WeatherDisplay:10.37,2013-09-22 18:48:00,
2013-09-22 11:53:00,69.1,52.2,29.93,WSW,252,1.2,1.2,55,0.00,FEW,,0.00,WeatherDisplay:10.37,2013-09-22 18:53:00,
2013-09-22 11:58:00,69.4,52.5,29.93,NNW,328,4.6,4.6,55,0.00,FEW,,0.00,WeatherDisplay:10.37,2013-09-22 18:58:00,
2013-09-22 12:03:00,69.8,52.4,29.93,SW,235,3.5,3.5,54,0.00,CLR,,0.00,WeatherDisplay:10.37,2013-09-22 19:03:00,
2013-09-22 12:08:00,70.1,52.2,29.93,East,79,2.3,2.3,53,0.00,CLR,,0.00,WeatherDisplay:10.37,2013-09-22 19:08:00,
2013-09-22 12:13:00,70.7,52.7,29.92,NNW,336,1.2,1.2,53,0.00,CLR,,0.00,WeatherDisplay:10.37,2013-09-22 19:13:00,
2013-09-22 12:18:00,71.1,53.1,29.93,West,278,2.3,2.3,53,0.00,CLR,,0.00,WeatherDisplay:10.37,2013-09-22 19:18:00,
2013-09-22 12:23:00,71.2,53.7,29.93,West,276,1.2,1.2,54,0.00,CLR,,0.00,WeatherDisplay:10.37,2013-09-22 19:23:00,
2013-09-22 12:28:00,71.3,52.2,29.92,North,356,3.5,3.5,51,0.00,CLR,,0.00,WeatherDisplay:10.37,2013-09-22 19:28:00,
2013-09-22 12:33:00,71.5,51.9,29.92,SW,217,1.2,1.2,50,0.00,FEW,,0.00,WeatherDisplay:10.37,2013-09-22 19:33:00,
2013-09-22 12:38:00,72.4,51.6,29.92,ENE,68,1.2,1.2,48,0.00,FEW,,0.00,WeatherDisplay:10.37,2013-09-22 19:38:00,
2013-09-22 12:43:00,72.7,52.4,29.92,ESE,106,1.2,1.2,49,0.00,FEW,,0.00,WeatherDisplay:10.37,2013-09-22 19:43:00,
2013-09-22 12:48:00,73.1,52.8,29.92,NW,308,2.3,2.3,49,0.00,FEW,,0.00,WeatherDisplay:10.37,2013-09-22 19:48:00,
2013-09-22 12:53:00,73.2,51.8,29.92,NNW,328,3.5,3.5,47,0.00,FEW,,0.00,WeatherDisplay:10.37,2013-09-22 19:53:00,
2013-09-22 12:58:00,73.2,52.3,29.92,South,174,2.3,2.3,48,0.00,FEW,,0.00,WeatherDisplay:10.37,2013-09-22 19:58:00,
2013-09-22 13:03:00,73.4,51.9,29.91,NW,315,3.5,3.5,47,0.00,CLR,,0.00,WeatherDisplay:10.37,2013-09-22 20:03:00,
2013-09-22 13:09:00,72.8,52.0,29.91,North,359,3.5,3.5,48,0.00,CLR,,0.00,WeatherDisplay:10.37,2013-09-22 20:09:00,
2013-09-22 13:14:00,72.2,52.0,29.91,North,352,1.2,1.2,49,0.00,CLR,,0.00,WeatherDisplay:10.37,2013-09-22 20:14:00,
2013-09-22 13:19:00,72.3,52.1,29.91,NNW,335,4.6,4.6,49,0.00,CLR,,0.00,WeatherDisplay:10.37,2013-09-22 20:19:00,
2013-09-22 13:24:00,72.6,51.8,29.91,SSW,198,1.2,1.2,48,0.00,CLR,,0.00,WeatherDisplay:10.37,2013-09-22 20:24:00,
2013-09-22 13:29:00,73.0,51.6,29.91,SSW,208,1.2,1.2,47,0.00,CLR,,0.00,WeatherDisplay:10.37,2013-09-22 20:29:00,
2013-09-22 13:34:00,73.9,53.0,29.90,WSW,252,1.2,1.2,48,0.00,CLR,,0.00,WeatherDisplay:10.37,2013-09-22 20:34:00,
2013-09-22 13:39:00,74.7,53.1,29.90,North,350,2.3,2.3,47,0.00,CLR,,0.00,WeatherDisplay:10.37,2013-09-22 20:39:00,
2013-09-22 13:44:00,74.5,52.4,29.90,North,359,3.0,3.0,46,0.00,CLR,,0.00,WeatherDisplay:10.37,2013-09-22 20:44:00,
2013-09-22 13:49:00,74.1,52.6,29.90,NNW,341,1.2,1.2,47,0.00,CLR,,0.00,WeatherDisplay:10.37,2013-09-22 20:49:00,
2013-09-22 13:54:00,74.3,52.2,29.90,West,269,1.2,1.2,46,0.00,CLR,,0.00,WeatherDisplay:10.37,2013-09-22 20:54:00,
2013-09-22 13:59:00,75.2,52.4,29.90,WNW,294,3.5,3.5,45,0.00,CLR,,0.00,WeatherDisplay:10.37,2013-09-22 20:59:00,
2013-09-22 14:04:00,75.9,52.4,29.90,NNW,342,0.0,0.0,44,0.00,FEW,,0.00,WeatherDisplay:10.37,2013-09-22 21:04:00,
2013-09-22 14:09:00,76.5,52.3,29.90,SW,221,1.2,0.0,43,0.00,FEW,,0.00,WeatherDisplay:10.37,2013-09-22 21:09:00,
2013-09-22 14:14:00,76.0,52.5,29.90,NNW,336,1.2,1.2,44,0.00,FEW,,0.00,WeatherDisplay:10.37,2013-09-22 21:14:00,
2013-09-22 14:19:00,76.1,51.3,29.90,NNE,13,2.3,2.3,42,0.00,FEW,,0.00,WeatherDisplay:10.37,2013-09-22 21:19:00,
2013-09-22 14:24:00,75.7,50.3,29.89,WSW,243,3.5,3.5,41,0.00,FEW,,0.00,WeatherDisplay:10.37,2013-09-22 21:24:00,
2013-09-22 14:29:00,75.5,51.4,29.89,NW,309,1.2,1.2,43,0.00,FEW,,0.00,WeatherDisplay:10.37,2013-09-22 21:29:00,
2013-09-22 14:34:00,75.8,52.9,29.89,NNE,18,5.8,5.8,45,0.00,CLR,,0.00,WeatherDisplay:10.37,2013-09-22 21:34:00,
2013-09-22 14:39:00,75.7,51.6,29.89,WNW,287,3.5,3.5,43,0.00,CLR,,0.00,WeatherDisplay:10.37,2013-09-22 21:39:00,
2013-09-22 14:44:00,75.7,51.6,29.88,North,354,1.2,1.2,43,0.00,CLR,,0.00,WeatherDisplay:10.37,2013-09-22 21:44:00,
2013-09-22 14:49:00,75.5,52.1,29.88,NNE,20,3.5,3.5,44,0.00,CLR,,0.00,WeatherDisplay:10.37,2013-09-22 21:49:00,
2013-09-22 14:54:00,75.5,51.4,29.88,WNW,284,2.3,2.3,43,0.00,CLR,,0.00,WeatherDisplay:10.37,2013-09-22 21:54:00,
2013-09-22 14:59:00,76.0,51.2,29.88,NNE,13,4.6,4.6,42,0.00,CLR,,0.00,WeatherDisplay:10.37,2013-09-22 21:59:00,
2013-09-22 15:04:00,76.1,51.3,29.88,West,273,1.2,1.2,42,0.00,CLR,,0.00,WeatherDisplay:10.37,2013-09-22 22:04:00,
2013-09-22 15:09:00,76.1,51.3,29.87,WNW,290,1.0,1.0,42,0.00,CLR,,0.00,WeatherDisplay:10.37,2013-09-22 22:09:00,
2013-09-22 15:14:00,76.6,51.8,29.87,North,351,3.5,3.5,42,0.00,CLR,,0.00,WeatherDisplay:10.37,2013-09-22 22:14:00,
2013-09-22 15:19:00,76.7,52.5,29.87,WNW,300,1.2,0.0,43,0.00,CLR,,0.00,WeatherDisplay:10.37,2013-09-22 22:19:00,
2013-09-22 15:24:00,76.7,51.2,29.87,NW,324,2.3,2.3,41,0.00,CLR,,0.00,WeatherDisplay:10.37,2013-09-22 22:24:00,
2013-09-22 15:29:00,76.9,52.1,29.86,SSW,193,2.3,2.3,42,0.00,CLR,,0.00,WeatherDisplay:10.37,2013-09-22 22:29:00,
2013-09-22 15:34:00,76.4,50.3,29.86,NNE,13,4.6,4.6,40,0.00,CLR,,0.00,WeatherDisplay:10.37,2013-09-22 22:34:00,
2013-09-22 15:39:00,75.8,51.1,29.86,WSW,243,3.5,3.5,42,0.00,CLR,,0.00,WeatherDisplay:10.37,2013-09-22 22:39:00,
2013-09-22 15:44:00,76.5,51.0,29.86,SSW,198,1.2,1.2,41,0.00,CLR,,0.00,WeatherDisplay:10.37,2013-09-22 22:44:00,
2013-09-22 15:49:00,76.8,50.6,29.86,WSW,240,2.3,2.3,40,0.00,CLR,,0.00,WeatherDisplay:10.37,2013-09-22 22:49:00,
2013-09-22 15:54:00,76.9,51.4,29.86,SSE,160,1.2,1.2,41,0.00,CLR,,0.00,WeatherDisplay:10.37,2013-09-22 22:54:00,
2013-09-22 15:59:00,77.1,52.2,29.86,NNW,348,2.3,2.3,42,0.00,CLR,,0.00,WeatherDisplay:10.37,2013-09-22 22:59:00,
2013-09-22 16:04:00,76.9,51.4,29.86,SSW,204,1.2,1.2,41,0.00,CLR,,0.00,WeatherDisplay:10.37,2013-09-22 23:04:00,
2013-09-22 16:09:00,76.9,50.7,29.86,West,263,2.3,2.3,40,0.00,CLR,,0.00,WeatherDisplay:10.37,2013-09-22 23:09:00,
2013-09-22 16:14:00,77.6,51.4,29.86,SW,233,1.2,1.2,40,0.00,CLR,,0.00,WeatherDisplay:10.37,2013-09-22 23:14:00,
2013-09-22 16:19:00,78.6,52.3,29.86,West,266,0.0,0.1,40,0.00,CLR,,0.00,WeatherDisplay:10.37,2013-09-22 23:19:00,
2013-09-22 16:24:00,79.7,51.8,29.85,West,271,1.0,1.0,38,0.00,CLR,,0.00,WeatherDisplay:10.37,2013-09-22 23:24:00,
2013-09-22 16:29:00,78.9,50.4,29.86,NNW,345,3.5,3.5,37,0.00,CLR,,0.00,WeatherDisplay:10.37,2013-09-22 23:29:00,
2013-09-22 16:34:00,78.0,51.0,29.86,WNW,300,2.3,2.3,39,0.00,CLR,,0.00,WeatherDisplay:10.37,2013-09-22 23:34:00,
2013-09-22 16:39:00,78.1,51.1,29.85,SSE,156,2.3,2.3,39,0.00,CLR,,0.00,WeatherDisplay:10.37,2013-09-22 23:39:00,
2013-09-22 16:44:00,78.6,50.9,29.85,WNW,285,2.3,2.3,38,0.00,CLR,,0.00,WeatherDisplay:10.37,2013-09-22 23:44:00,
2013-09-22 16:49:00,78.9,51.1,29.85,West,267,1.2,0.0,38,0.00,CLR,,0.00,WeatherDisplay:10.37,2013-09-22 23:49:00,
2013-09-22 16:54:00,79.0,50.5,29.85,SW,217,4.6,4.6,37,0.00,CLR,,0.00,WeatherDisplay:10.37,2013-09-22 23:54:00,
2013-09-22 16:59:00,78.4,50.0,29.86,WNW,294,3.5,3.5,37,0.00,CLR,,0.00,WeatherDisplay:10.37,2013-09-22 23:59:00,
2013-09-22 17:04:00,77.8,50.2,29.85,West,276,0.0,0.0,38,0.00,CLR,,0.00,WeatherDisplay:10.37,2013-09-23 00:04:00,
2013-09-22 17:09:00,78.4,49.2,29.85,NW,314,1.2,1.2,36,0.00,CLR,,0.00,WeatherDisplay:10.37,2013-09-23 00:09:00,
2013-09-22 17:14:00,78.1,49.7,29.85,West,260,2.3,2.3,37,0.00,CLR,,0.00,WeatherDisplay:10.37,2013-09-23 00:14:00,
2013-09-22 17:19:00,77.6,48.5,29.85,NNW,341,3.5,3.5,36,0.00,CLR,,0.00,WeatherDisplay:10.37,2013-09-23 00:19:00,
2013-09-22 17:24:00,77.3,49.0,29.85,North,354,1.2,1.2,37,0.00,CLR,,0.00,WeatherDisplay:10.37,2013-09-23 00:24:00,
2013-09-22 17:29:00,77.6,50.0,29.85,WNW,296,3.5,3.5,38,0.00,CLR,,0.00,WeatherDisplay:10.37,2013-09-23 00:29:00,
2013-09-22 17:34:00,77.7,49.3,29.85,North,354,2.3,2.3,37,0.00,CLR,,0.00,WeatherDisplay:10.37,2013-09-23 00:34:00,
2013-09-22 17:39:00,77.4,49.8,29.85,SW,231,1.0,1.0,38,0.00,CLR,,0.00,WeatherDisplay:10.37,2013-09-23 00:39:00,
2013-09-22 17:44:00,77.1,48.8,29.85,NW,325,3.5,3.5,37,0.00,CLR,,0.00,WeatherDisplay:10.37,2013-09-23 00:44:00,
2013-09-22 17:49:00,76.7,49.2,29.85,SSW,192,4.6,4.6,38,0.00,CLR,,0.00,WeatherDisplay:10.37,2013-09-23 00:49:00,
2013-09-22 17:54:00,75.8,49.1,29.85,ENE,76,2.3,2.3,39,0.00,CLR,,0.00,WeatherDisplay:10.37,2013-09-23 00:54:00,
2013-09-22 17:59:00,75.3,49.3,29.85,WNW,283,1.2,1.2,40,0.00,CLR,,0.00,WeatherDisplay:10.37,2013-09-23 00:59:00,
2013-09-22 18:04:00,74.7,48.8,29.85,NW,321,2.3,2.3,40,0.00,CLR,,0.00,WeatherDisplay:10.37,2013-09-23 01:04:00,
2013-09-22 18:10:00,74.3,48.4,29.86,NNW,333,2.3,2.3,40,0.00,CLR,,0.00,WeatherDisplay:10.37,2013-09-23 01:10:00,
2013-09-22 18:15:00,73.9,49.4,29.86,North,360,1.2,1.2,42,0.00,CLR,,0.00,WeatherDisplay:10.37,2013-09-23 01:15:00,
2013-09-22 18:20:00,73.6,48.4,29.86,North,349,1.2,1.2,41,0.00,CLR,,0.00,WeatherDisplay:10.37,2013-09-23 01:20:00,
2013-09-22 18:25:00,73.4,48.9,29.85,NNW,339,2.3,2.3,42,0.00,CLR,,0.00,WeatherDisplay:10.37,2013-09-23 01:25:00,
2013-09-22 18:30:00,73.2,49.4,29.86,NNW,330,2.3,2.3,43,0.00,CLR,,0.00,WeatherDisplay:10.37,2013-09-23 01:30:00,
2013-09-22 18:35:00,72.8,49.0,29.86,NNW,345,1.2,1.2,43,0.00,CLR,,0.00,WeatherDisplay:10.37,2013-09-23 01:35:00,
2013-09-22 18:40:00,72.6,49.4,29.86,NNW,345,1.2,0.0,44,0.00,CLR,,0.00,WeatherDisplay:10.37,2013-09-23 01:40:00,
2013-09-22 18:45:00,72.3,49.2,29.86,NW,325,0.0,0.0,44,0.00,CLR,,0.00,WeatherDisplay:10.37,2013-09-23 01:45:00,
2013-09-22 18:50:00,72.0,48.9,29.86,NW,319,0.0,0.0,44,0.00,CLR,,0.00,WeatherDisplay:10.37,2013-09-23 01:50:00,
2013-09-22 18:55:00,71.7,49.2,29.86,NW,319,0.0,0.0,45,0.00,CLR,,0.00,WeatherDisplay:10.37,2013-09-23 01:55:00,
2013-09-22 19:00:00,71.3,50.0,29.86,NW,319,0.0,0.0,47,0.00,CLR,,0.00,WeatherDisplay:10.37,2013-09-23 02:00:00,
2013-09-22 19:05:00,70.8,49.6,29.86,NW,319,0.0,0.0,47,0.00,CLR,,0.00,WeatherDisplay:10.37,2013-09-23 02:05:00,
2013-09-22 19:10:00,70.5,49.3,29.86,West,263,0.0,0.0,47,0.00,CLR,,0.00,WeatherDisplay:10.37,2013-09-23 02:10:00,
2013-09-22 19:15:00,70.2,49.6,29.86,West,267,1.2,0.0,48,0.00,CLR,,0.00,WeatherDisplay:10.37,2013-09-23 02:15:00,
2013-09-22 19:20:00,70.0,49.4,29.86,West,266,0.0,0.0,48,0.00,CLR,,0.00,WeatherDisplay:10.37,2013-09-23 02:20:00,
2013-09-22 19:25:00,69.7,49.7,29.86,WNW,300,1.2,1.2,49,0.00,CLR,,0.00,WeatherDisplay:10.37,2013-09-23 02:25:00,
2013-09-22 19:30:00,69.6,49.6,29.87,WNW,300,0.0,0.0,49,0.00,CLR,,0.00,WeatherDisplay:10.37,2013-09-23 02:30:00,
2013-09-22 19:35:00,69.3,49.9,29.87,WNW,300,0.0,0.0,50,0.00,CLR,,0.00,WeatherDisplay:10.37,2013-09-23 02:35:00,
2013-09-22 19:40:00,69.1,50.2,29.87,NW,310,0.0,0.0,51,0.00,CLR,,0.00,WeatherDisplay:10.37,2013-09-23 02:40:00,
2013-09-22 19:45:00,68.8,49.9,29.87,NW,312,0.0,0.0,51,0.00,CLR,,0.00,WeatherDisplay:10.37,2013-09-23 02:45:00,
2013-09-22 19:50:00,68.6,50.3,29.88,NW,312,0.0,0.0,52,0.00,CLR,,0.00,WeatherDisplay:10.37,2013-09-23 02:50:00,
2013-09-22 19:55:00,68.3,50.5,29.88,NW,312,0.0,0.0,53,0.00,CLR,,0.00,WeatherDisplay:10.37,2013-09-23 02:55:00,
2013-09-22 20:00:00,68.0,50.2,29.88,NW,312,0.0,0.0,53,0.00,CLR,,0.00,WeatherDisplay:10.37,2013-09-23 03:00:00,
2013-09-22 20:05:00,67.7,50.5,29.88,NW,312,0.0,0.0,54,0.00,CLR,,0.00,WeatherDisplay:10.37,2013-09-23 03:05:00,
2013-09-22 20:10:00,67.5,50.8,29.89,NW,312,0.0,0.0,55,0.00,CLR,,0.00,WeatherDisplay:10.37,2013-09-23 03:10:00,
2013-09-22 20:15:00,67.3,50.6,29.89,NW,311,0.0,0.0,55,0.00,CLR,,0.00,WeatherDisplay:10.37,2013-09-23 03:15:00,
2013-09-22 20:20:00,67.1,50.4,29.89,West,271,0.0,0.0,55,0.00,CLR,,0.00,WeatherDisplay:10.37,2013-09-23 03:20:00,
2013-09-22 20:25:00,66.9,50.7,29.89,West,271,0.0,0.0,56,0.00,CLR,,0.00,WeatherDisplay:10.37,2013-09-23 03:25:00,
2013-09-22 20:30:00,66.8,50.6,29.90,West,271,0.0,0.0,56,0.00,CLR,,0.00,WeatherDisplay:10.37,2013-09-23 03:30:00,
2013-09-22 20:35:00,66.6,50.4,29.90,West,271,0.0,0.0,56,0.00,CLR,,0.00,WeatherDisplay:10.37,2013-09-23 03:35:00,
2013-09-22 20:40:00,66.3,51.1,29.90,West,271,0.0,0.0,58,0.00,CLR,,0.00,WeatherDisplay:10.37,2013-09-23 03:40:00,
2013-09-22 20:45:00,66.0,51.3,29.90,West,271,0.0,0.0,59,0.00,CLR,,0.00,WeatherDisplay:10.37,2013-09-23 03:45:00,
2013-09-22 20:50:00,65.6,51.8,29.90,West,271,0.0,0.0,61,0.00,CLR,,0.00,WeatherDisplay:10.37,2013-09-23 03:50:00,
2013-09-22 20:55:00,65.2,51.4,29.91,West,271,0.0,0.0,61,0.00,CLR,,0.00,WeatherDisplay:10.37,2013-09-23 03:55:00,
2013-09-22 21:00:00,64.8,50.6,29.91,West,271,0.0,0.0,60,0.00,CLR,,0.00,WeatherDisplay:10.37,2013-09-23 04:00:00,
2013-09-22 21:01:00,64.8,50.6,29.91,West,271,0.0,0.0,60,0.00,CLR,,0.00,WeatherDisplay:10.37,2013-09-23 04:01:00,
2013-09-22 21:02:00,64.7,50.9,29.91,West,271,0.0,0.0,61,0.00,CLR,,0.00,WeatherDisplay:10.37,2013-09-23 04:02:00,
2013-09-22 21:05:00,64.7,51.4,29.91,West,271,0.0,0.0,62,0.00,CLR,,0.00,WeatherDisplay:10.37,2013-09-23 04:05:00,
2013-09-22 21:10:00,64.5,52.0,29.91,West,271,0.0,0.0,64,0.00,CLR,,0.00,WeatherDisplay:10.37,2013-09-23 04:10:00,
2013-09-22 21:15:00,64.2,50.9,29.91,West,271,0.0,0.0,62,0.00,CLR,,0.00,WeatherDisplay:10.37,2013-09-23 04:15:00,
2013-09-22 21:20:00,64.0,51.6,29.91,West,271,0.0,0.0,64,0.00,CLR,,0.00,WeatherDisplay:10.37,2013-09-23 04:20:00,
2013-09-22 21:25:00,63.7,50.9,29.91,West,271,0.0,0.0,63,0.00,CLR,,0.00,WeatherDisplay:10.37,2013-09-23 04:25:00,
2013-09-22 21:30:00,63.4,51.4,29.91,West,271,0.0,0.0,65,0.00,CLR,,0.00,WeatherDisplay:10.37,2013-09-23 04:30:00,
2013-09-22 21:35:00,63.2,51.2,29.91,West,271,0.0,0.0,65,0.00,CLR,,0.00,WeatherDisplay:10.37,2013-09-23 04:35:00,
2013-09-22 21:40:00,63.0,51.5,29.91,West,271,0.0,0.0,66,0.00,CLR,,0.00,WeatherDisplay:10.37,2013-09-23 04:40:00,
2013-09-22 21:45:00,62.8,51.7,29.91,West,271,0.0,0.0,67,0.00,CLR,,0.00,WeatherDisplay:10.37,2013-09-23 04:45:00,
2013-09-22 21:50:00,62.6,51.5,29.91,West,271,0.0,0.0,67,0.00,CLR,,0.00,WeatherDisplay:10.37,2013-09-23 04:50:00,
2013-09-22 21:55:00,62.5,51.8,29.91,West,271,0.0,0.0,68,0.00,CLR,,0.00,WeatherDisplay:10.37,2013-09-23 04:55:00,
2013-09-22 22:00:00,62.4,52.1,29.91,West,271,0.0,0.0,69,0.00,CLR,,0.00,WeatherDisplay:10.37,2013-09-23 05:00:00,
2013-09-22 22:05:00,62.3,52.4,29.91,West,271,0.0,0.0,70,0.00,CLR,,0.00,WeatherDisplay:10.37,2013-09-23 05:05:00,
2013-09-22 22:10:00,62.1,51.8,29.91,West,271,0.0,0.0,69,0.00,CLR,,0.00,WeatherDisplay:10.37,2013-09-23 05:10:00,
2013-09-22 22:15:00,62.0,52.5,29.91,West,271,0.0,0.0,71,0.00,CLR,,0.00,WeatherDisplay:10.37,2013-09-23 05:15:00,
2013-09-22 22:20:00,61.8,52.3,29.91,West,271,0.0,0.0,71,0.00,CLR,,0.00,WeatherDisplay:10.37,2013-09-23 05:20:00,
2013-09-22 22:25:00,61.6,52.1,29.91,West,271,0.0,0.0,71,0.00,CLR,,0.00,WeatherDisplay:10.37,2013-09-23 05:25:00,
2013-09-22 22:30:00,61.4,51.9,29.91,West,271,0.0,0.0,71,0.00,CLR,,0.00,WeatherDisplay:10.37,2013-09-23 05:30:00,
2013-09-22 22:35:00,61.2,52.1,29.91,West,271,0.0,0.0,72,0.00,CLR,,0.00,WeatherDisplay:10.37,2013-09-23 05:35:00,
2013-09-22 22:40:00,61.1,51.6,29.91,West,271,0.0,0.0,71,0.00,CLR,,0.00,WeatherDisplay:10.37,2013-09-23 05:40:00,
2013-09-22 22:45:00,61.0,51.9,29.92,West,271,0.0,0.0,72,0.00,CLR,,0.00,WeatherDisplay:10.37,2013-09-23 05:45:00,
2013-09-22 22:50:00,61.0,51.5,29.92,West,271,0.0,0.0,71,0.00,CLR,,0.00,WeatherDisplay:10.37,2013-09-23 05:50:00,
2013-09-22 22:55:00,60.9,51.8,29.91,West,271,0.0,0.0,72,0.00,CLR,,0.00,WeatherDisplay:10.37,2013-09-23 05:55:00,
2013-09-22 23:00:00,60.8,51.7,29.92,West,271,0.0,0.0,72,0.00,CLR,,0.00,WeatherDisplay:10.37,2013-09-23 06:00:00,
2013-09-22 23:05:00,60.7,51.6,29.92,West,271,0.0,0.0,72,0.00,CLR,,0.00,WeatherDisplay:10.37,2013-09-23 06:05:00,
2013-09-22 23:10:00,60.5,51.8,29.92,West,271,0.0,0.0,73,0.00,CLR,,0.00,WeatherDisplay:10.37,2013-09-23 06:10:00,
2013-09-22 23:15:00,60.4,51.7,29.92,West,271,0.0,0.0,73,0.00,CLR,,0.00,WeatherDisplay:10.37,2013-09-23 06:15:00,
2013-09-22 23:20:00,60.3,51.6,29.92,West,271,0.0,0.0,73,0.00,CLR,,0.00,WeatherDisplay:10.37,2013-09-23 06:20:00,
2013-09-22 23:25:00,60.1,51.0,29.92,West,271,0.0,0.0,72,0.00,CLR,,0.00,WeatherDisplay:10.37,2013-09-23 06:25:00,
2013-09-22 23:30:00,60.0,52.1,29.92,West,271,0.0,0.0,75,0.00,CLR,,0.00,WeatherDisplay:10.37,2013-09-23 06:30:00,
2013-09-22 23:35:00,59.8,51.5,29.92,West,271,0.0,0.0,74,0.00,CLR,,0.00,WeatherDisplay:10.37,2013-09-23 06:35:00,
2013-09-22 23:40:00,59.8,52.2,29.92,West,271,0.0,0.0,76,0.00,CLR,,0.00,WeatherDisplay:10.37,2013-09-23 06:40:00,
2013-09-22 23:45:00,59.6,51.7,29.92,West,271,0.0,0.0,75,0.00,CLR,,0.00,WeatherDisplay:10.37,2013-09-23 06:45:00,
2013-09-22 23:50:00,59.4,51.5,29.92,West,271,0.0,0.0,75,0.00,CLR,,0.00,WeatherDisplay:10.37,2013-09-23 06:50:00,
2013-09-22 23:55:00,59.3,51.4,29.93,West,271,0.0,0.0,75,0.00,CLR,,0.00,WeatherDisplay:10.37,2013-09-23 06:55:00,